sensor_id;sensor_type;location;lat;lon;timestamp;P1;durP1;ratioP1;P2;durP2;ratioP2
53867;SDS011;41577;47.470;19.080;2023-08-20T00:00:01;9.20;;;5.22;;
53867;SDS011;41577;47.470;19.080;2023-08-20T00:00:22;9.30;;;5.55;;
53867;SDS011;41577;47.470;19.080;2023-08-20T00:00:35;6.82;;;5.60;;
53867;SDS011;41577;47.470;19.080;2023-08-20T00:00:47;7.03;;;5.63;;
53867;SDS011;41577;47.470;19.080;2023-08-20T00:00:59;6.85;;;5.50;;
53867;SDS011;41577;47.470;19.080;2023-08-20T00:01:13;6.55;;;5.30;;
53867;SDS011;41577;47.470;19.080;2023-08-20T00:01:29;6.78;;;5.55;;
53867;SDS011;41577;47.470;19.080;2023-08-20T00:01:42;6.57;;;5.88;;
53867;SDS011;41577;47.470;19.080;2023-08-20T00:01:56;6.47;;;5.45;;
53867;SDS011;41577;47.470;19.080;2023-08-20T00:02:09;6.38;;;5.20;;
53867;SDS011;41577;47.470;19.080;2023-08-20T00:02:21;6.93;;;5.40;;
53867;SDS011;41577;47.470;19.080;2023-08-20T00:02:35;7.53;;;5.43;;
53867;SDS011;41577;47.470;19.080;2023-08-20T00:02:49;7.38;;;5.55;;
53867;SDS011;41577;47.470;19.080;2023-08-20T00:03:08;6.90;;;5.78;;
53867;SDS011;41577;47.470;19.080;2023-08-20T00:03:23;6.80;;;5.93;;
53867;SDS011;41577;47.470;19.080;2023-08-20T00:03:35;6.95;;;5.55;;
53867;SDS011;41577;47.470;19.080;2023-08-20T00:03:47;7.63;;;5.90;;
53867;SDS011;41577;47.470;19.080;2023-08-20T00:04:01;7.18;;;5.95;;
53867;SDS011;41577;47.470;19.080;2023-08-20T00:04:14;5.70;;;5.07;;
53867;SDS011;41577;47.470;19.080;2023-08-20T00:04:26;6.07;;;4.63;;
53867;SDS011;41577;47.470;19.080;2023-08-20T00:04:39;5.88;;;4.60;;
53867;SDS011;41577;47.470;19.080;2023-08-20T00:04:54;5.60;;;5.00;;
53867;SDS011;41577;47.470;19.080;2023-08-20T00:05:10;8.07;;;5.35;;
53867;SDS011;41577;47.470;19.080;2023-08-20T00:05:23;7.90;;;5.18;;
53867;SDS011;41577;47.470;19.080;2023-08-20T00:05:35;6.90;;;5.25;;
53867;SDS011;41577;47.470;19.080;2023-08-20T00:05:48;7.45;;;5.38;;
53867;SDS011;41577;47.470;19.080;2023-08-20T00:06:00;7.22;;;5.57;;
53867;SDS011;41577;47.470;19.080;2023-08-20T00:06:13;8.65;;;5.30;;
53867;SDS011;41577;47.470;19.080;2023-08-20T00:06:25;12.63;;;5.13;;
53867;SDS011;41577;47.470;19.080;2023-08-20T00:06:38;14.80;;;5.38;;
53867;SDS011;41577;47.470;19.080;2023-08-20T00:06:50;10.77;;;5.45;;
53867;SDS011;41577;47.470;19.080;2023-08-20T00:07:02;10.15;;;5.68;;
53867;SDS011;41577;47.470;19.080;2023-08-20T00:07:15;7.25;;;5.68;;
53867;SDS011;41577;47.470;19.080;2023-08-20T00:07:28;6.50;;;5.90;;
53867;SDS011;41577;47.470;19.080;2023-08-20T00:07:40;6.15;;;5.45;;
53867;SDS011;41577;47.470;19.080;2023-08-20T00:07:53;7.10;;;5.32;;
53867;SDS011;41577;47.470;19.080;2023-08-20T00:08:05;6.82;;;5.32;;
53867;SDS011;41577;47.470;19.080;2023-08-20T00:08:18;7.90;;;5.47;;
53867;SDS011;41577;47.470;19.080;2023-08-20T00:08:30;8.55;;;5.55;;
53867;SDS011;41577;47.470;19.080;2023-08-20T00:08:42;10.35;;;5.70;;
53867;SDS011;41577;47.470;19.080;2023-08-20T00:08:54;8.65;;;5.38;;
53867;SDS011;41577;47.470;19.080;2023-08-20T00:09:05;7.28;;;5.43;;
53867;SDS011;41577;47.470;19.080;2023-08-20T00:09:17;6.80;;;5.60;;
53867;SDS011;41577;47.470;19.080;2023-08-20T00:09:29;6.50;;;5.68;;
53867;SDS011;41577;47.470;19.080;2023-08-20T00:09:41;6.10;;;5.43;;
53867;SDS011;41577;47.470;19.080;2023-08-20T00:09:53;6.10;;;5.50;;
53867;SDS011;41577;47.470;19.080;2023-08-20T00:10:05;6.97;;;5.45;;
53867;SDS011;41577;47.470;19.080;2023-08-20T00:10:18;13.30;;;5.55;;
53867;SDS011;41577;47.470;19.080;2023-08-20T00:10:30;13.63;;;5.57;;
53867;SDS011;41577;47.470;19.080;2023-08-20T00:10:42;10.13;;;5.50;;
53867;SDS011;41577;47.470;19.080;2023-08-20T00:10:53;7.40;;;5.50;;
53867;SDS011;41577;47.470;19.080;2023-08-20T00:11:05;7.72;;;5.72;;
53867;SDS011;41577;47.470;19.080;2023-08-20T00:11:17;7.40;;;5.72;;
53867;SDS011;41577;47.470;19.080;2023-08-20T00:11:29;6.30;;;5.35;;
53867;SDS011;41577;47.470;19.080;2023-08-20T00:11:41;6.40;;;5.40;;
53867;SDS011;41577;47.470;19.080;2023-08-20T00:11:53;7.70;;;5.10;;
53867;SDS011;41577;47.470;19.080;2023-08-20T00:12:05;9.20;;;5.43;;
53867;SDS011;41577;47.470;19.080;2023-08-20T00:12:17;9.40;;;5.43;;
53867;SDS011;41577;47.470;19.080;2023-08-20T00:12:29;7.25;;;5.20;;
53867;SDS011;41577;47.470;19.080;2023-08-20T00:12:41;6.70;;;5.28;;
53867;SDS011;41577;47.470;19.080;2023-08-20T00:12:52;5.38;;;4.88;;
53867;SDS011;41577;47.470;19.080;2023-08-20T00:13:04;5.55;;;4.90;;
53867;SDS011;41577;47.470;19.080;2023-08-20T00:13:16;6.47;;;5.38;;
53867;SDS011;41577;47.470;19.080;2023-08-20T00:13:28;8.60;;;5.72;;
53867;SDS011;41577;47.470;19.080;2023-08-20T00:13:40;8.85;;;5.88;;
53867;SDS011;41577;47.470;19.080;2023-08-20T00:13:52;8.93;;;6.00;;
53867;SDS011;41577;47.470;19.080;2023-08-20T00:14:04;6.47;;;5.80;;
53867;SDS011;41577;47.470;19.080;2023-08-20T00:14:17;5.97;;;5.40;;
53867;SDS011;41577;47.470;19.080;2023-08-20T00:15:04;7.68;;;5.95;;
53867;SDS011;41577;47.470;19.080;2023-08-20T00:15:16;6.38;;;5.55;;
53867;SDS011;41577;47.470;19.080;2023-08-20T00:15:28;6.32;;;5.35;;
53867;SDS011;41577;47.470;19.080;2023-08-20T00:15:40;6.22;;;5.13;;
53867;SDS011;41577;47.470;19.080;2023-08-20T00:15:53;7.47;;;5.53;;
53867;SDS011;41577;47.470;19.080;2023-08-20T00:16:05;6.40;;;5.50;;
53867;SDS011;41577;47.470;19.080;2023-08-20T00:16:18;6.22;;;5.63;;
53867;SDS011;41577;47.470;19.080;2023-08-20T00:16:30;6.25;;;5.65;;
53867;SDS011;41577;47.470;19.080;2023-08-20T00:16:43;6.15;;;5.55;;
53867;SDS011;41577;47.470;19.080;2023-08-20T00:16:57;8.75;;;5.82;;
53867;SDS011;41577;47.470;19.080;2023-08-20T00:17:09;10.88;;;6.18;;
53867;SDS011;41577;47.470;19.080;2023-08-20T00:17:22;8.93;;;5.90;;
53867;SDS011;41577;47.470;19.080;2023-08-20T00:17:34;7.35;;;5.75;;
53867;SDS011;41577;47.470;19.080;2023-08-20T00:17:48;7.25;;;5.50;;
53867;SDS011;41577;47.470;19.080;2023-08-20T00:18:01;9.13;;;5.60;;
53867;SDS011;41577;47.470;19.080;2023-08-20T00:18:13;12.70;;;5.75;;
53867;SDS011;41577;47.470;19.080;2023-08-20T00:18:26;18.83;;;5.78;;
53867;SDS011;41577;47.470;19.080;2023-08-20T00:18:38;19.40;;;6.07;;
53867;SDS011;41577;47.470;19.080;2023-08-20T00:18:51;9.80;;;5.80;;
53867;SDS011;41577;47.470;19.080;2023-08-20T00:19:03;9.95;;;5.65;;
53867;SDS011;41577;47.470;19.080;2023-08-20T00:19:16;10.77;;;5.70;;
53867;SDS011;41577;47.470;19.080;2023-08-20T00:19:28;15.82;;;6.45;;
53867;SDS011;41577;47.470;19.080;2023-08-20T00:19:40;13.82;;;6.45;;
53867;SDS011;41577;47.470;19.080;2023-08-20T00:19:53;12.18;;;6.38;;
53867;SDS011;41577;47.470;19.080;2023-08-20T00:20:06;8.70;;;5.97;;
53867;SDS011;41577;47.470;19.080;2023-08-20T00:20:20;9.02;;;5.80;;
53867;SDS011;41577;47.470;19.080;2023-08-20T00:20:32;9.18;;;5.60;;
53867;SDS011;41577;47.470;19.080;2023-08-20T00:20:45;6.82;;;5.47;;
53867;SDS011;41577;47.470;19.080;2023-08-20T00:20:57;7.97;;;5.78;;
53867;SDS011;41577;47.470;19.080;2023-08-20T00:21:09;7.90;;;5.63;;
53867;SDS011;41577;47.470;19.080;2023-08-20T00:21:21;7.97;;;5.80;;
53867;SDS011;41577;47.470;19.080;2023-08-20T00:21:34;6.90;;;5.57;;
53867;SDS011;41577;47.470;19.080;2023-08-20T00:21:47;6.45;;;5.70;;
53867;SDS011;41577;47.470;19.080;2023-08-20T00:21:59;6.70;;;5.65;;
53867;SDS011;41577;47.470;19.080;2023-08-20T00:22:11;9.25;;;5.90;;
53867;SDS011;41577;47.470;19.080;2023-08-20T00:22:23;10.50;;;6.10;;
53867;SDS011;41577;47.470;19.080;2023-08-20T00:22:36;8.88;;;6.03;;
53867;SDS011;41577;47.470;19.080;2023-08-20T00:22:49;8.88;;;5.95;;
53867;SDS011;41577;47.470;19.080;2023-08-20T00:23:01;8.40;;;5.90;;
53867;SDS011;41577;47.470;19.080;2023-08-20T00:23:13;8.95;;;5.82;;
53867;SDS011;41577;47.470;19.080;2023-08-20T00:23:26;8.65;;;5.68;;
53867;SDS011;41577;47.470;19.080;2023-08-20T00:23:38;8.85;;;5.88;;
53867;SDS011;41577;47.470;19.080;2023-08-20T00:23:51;9.25;;;5.70;;
53867;SDS011;41577;47.470;19.080;2023-08-20T00:24:03;10.85;;;5.50;;
53867;SDS011;41577;47.470;19.080;2023-08-20T00:24:16;13.15;;;5.88;;
53867;SDS011;41577;47.470;19.080;2023-08-20T00:24:29;11.98;;;5.75;;
53867;SDS011;41577;47.470;19.080;2023-08-20T00:24:41;6.95;;;5.47;;
53867;SDS011;41577;47.470;19.080;2023-08-20T00:24:54;5.93;;;5.30;;
53867;SDS011;41577;47.470;19.080;2023-08-20T00:25:06;6.03;;;5.20;;
53867;SDS011;41577;47.470;19.080;2023-08-20T00:25:19;6.10;;;5.50;;
53867;SDS011;41577;47.470;19.080;2023-08-20T00:25:31;6.60;;;5.60;;
53867;SDS011;41577;47.470;19.080;2023-08-20T00:25:44;8.00;;;5.78;;
53867;SDS011;41577;47.470;19.080;2023-08-20T00:25:56;8.07;;;5.85;;
53867;SDS011;41577;47.470;19.080;2023-08-20T00:26:08;8.77;;;5.93;;
53867;SDS011;41577;47.470;19.080;2023-08-20T00:26:21;8.77;;;5.80;;
53867;SDS011;41577;47.470;19.080;2023-08-20T00:26:33;11.05;;;6.22;;
53867;SDS011;41577;47.470;19.080;2023-08-20T00:26:46;9.13;;;5.97;;
53867;SDS011;41577;47.470;19.080;2023-08-20T00:26:58;8.07;;;5.85;;
53867;SDS011;41577;47.470;19.080;2023-08-20T00:27:10;7.65;;;6.07;;
53867;SDS011;41577;47.470;19.080;2023-08-20T00:27:22;7.05;;;6.00;;
53867;SDS011;41577;47.470;19.080;2023-08-20T00:27:33;8.50;;;5.90;;
53867;SDS011;41577;47.470;19.080;2023-08-20T00:27:46;7.82;;;5.35;;
53867;SDS011;41577;47.470;19.080;2023-08-20T00:27:58;9.35;;;5.63;;
53867;SDS011;41577;47.470;19.080;2023-08-20T00:28:09;7.80;;;5.82;;
53867;SDS011;41577;47.470;19.080;2023-08-20T00:28:21;9.00;;;6.10;;
53867;SDS011;41577;47.470;19.080;2023-08-20T00:28:33;13.18;;;5.95;;
53867;SDS011;41577;47.470;19.080;2023-08-20T00:28:45;14.07;;;5.90;;
53867;SDS011;41577;47.470;19.080;2023-08-20T00:28:57;11.63;;;5.95;;
53867;SDS011;41577;47.470;19.080;2023-08-20T00:29:09;11.63;;;5.88;;
53867;SDS011;41577;47.470;19.080;2023-08-20T00:29:20;11.75;;;5.53;;
53867;SDS011;41577;47.470;19.080;2023-08-20T00:29:32;11.25;;;5.80;;
53867;SDS011;41577;47.470;19.080;2023-08-20T00:29:44;7.85;;;5.80;;
53867;SDS011;41577;47.470;19.080;2023-08-20T00:29:56;8.77;;;5.80;;
53867;SDS011;41577;47.470;19.080;2023-08-20T00:30:08;8.77;;;5.63;;
53867;SDS011;41577;47.470;19.080;2023-08-20T00:30:21;9.68;;;5.82;;
53867;SDS011;41577;47.470;19.080;2023-08-20T00:30:33;8.02;;;5.57;;
53867;SDS011;41577;47.470;19.080;2023-08-20T00:30:45;8.25;;;5.57;;
53867;SDS011;41577;47.470;19.080;2023-08-20T00:30:57;7.35;;;5.57;;
53867;SDS011;41577;47.470;19.080;2023-08-20T00:31:09;7.57;;;5.65;;
53867;SDS011;41577;47.470;19.080;2023-08-20T00:31:21;9.38;;;5.80;;
53867;SDS011;41577;47.470;19.080;2023-08-20T00:31:32;11.48;;;5.72;;
53867;SDS011;41577;47.470;19.080;2023-08-20T00:31:44;12.10;;;5.50;;
53867;SDS011;41577;47.470;19.080;2023-08-20T00:31:57;10.55;;;5.32;;
53867;SDS011;41577;47.470;19.080;2023-08-20T00:32:09;10.05;;;5.50;;
53867;SDS011;41577;47.470;19.080;2023-08-20T00:32:21;9.70;;;5.88;;
53867;SDS011;41577;47.470;19.080;2023-08-20T00:32:33;11.93;;;5.75;;
53867;SDS011;41577;47.470;19.080;2023-08-20T00:32:45;12.85;;;5.75;;
53867;SDS011;41577;47.470;19.080;2023-08-20T00:32:57;10.88;;;5.53;;
53867;SDS011;41577;47.470;19.080;2023-08-20T00:33:09;7.22;;;5.35;;
53867;SDS011;41577;47.470;19.080;2023-08-20T00:33:21;7.10;;;5.73;;
53867;SDS011;41577;47.470;19.080;2023-08-20T00:33:33;9.75;;;5.88;;
53867;SDS011;41577;47.470;19.080;2023-08-20T00:33:45;9.45;;;5.68;;
53867;SDS011;41577;47.470;19.080;2023-08-20T00:34:11;9.93;;;5.60;;
53867;SDS011;41577;47.470;19.080;2023-08-20T00:34:23;8.60;;;5.75;;
53867;SDS011;41577;47.470;19.080;2023-08-20T00:34:35;9.13;;;5.65;;
53867;SDS011;41577;47.470;19.080;2023-08-20T00:34:47;8.63;;;5.53;;
53867;SDS011;41577;47.470;19.080;2023-08-20T00:34:58;9.57;;;5.60;;
53867;SDS011;41577;47.470;19.080;2023-08-20T00:35:10;9.70;;;5.53;;
53867;SDS011;41577;47.470;19.080;2023-08-20T00:35:22;9.20;;;5.55;;
53867;SDS011;41577;47.470;19.080;2023-08-20T00:35:34;7.32;;;5.50;;
53867;SDS011;41577;47.470;19.080;2023-08-20T00:35:46;7.10;;;5.72;;
53867;SDS011;41577;47.470;19.080;2023-08-20T00:35:58;8.25;;;6.28;;
53867;SDS011;41577;47.470;19.080;2023-08-20T00:36:10;10.48;;;6.55;;
53867;SDS011;41577;47.470;19.080;2023-08-20T00:36:22;13.52;;;6.47;;
53867;SDS011;41577;47.470;19.080;2023-08-20T00:36:33;15.82;;;6.40;;
53867;SDS011;41577;47.470;19.080;2023-08-20T00:36:45;11.93;;;5.90;;
53867;SDS011;41577;47.470;19.080;2023-08-20T00:36:57;7.47;;;5.82;;
53867;SDS011;41577;47.470;19.080;2023-08-20T00:37:09;7.50;;;5.63;;
53867;SDS011;41577;47.470;19.080;2023-08-20T00:37:21;7.60;;;5.88;;
53867;SDS011;41577;47.470;19.080;2023-08-20T00:37:33;7.25;;;5.80;;
53867;SDS011;41577;47.470;19.080;2023-08-20T00:37:45;7.55;;;5.43;;
53867;SDS011;41577;47.470;19.080;2023-08-20T00:37:57;10.27;;;5.63;;
53867;SDS011;41577;47.470;19.080;2023-08-20T00:38:11;10.18;;;5.80;;
53867;SDS011;41577;47.470;19.080;2023-08-20T00:38:23;11.15;;;5.78;;
53867;SDS011;41577;47.470;19.080;2023-08-20T00:38:35;9.10;;;5.65;;
53867;SDS011;41577;47.470;19.080;2023-08-20T00:38:47;9.00;;;5.75;;
53867;SDS011;41577;47.470;19.080;2023-08-20T00:38:58;9.00;;;6.18;;
53867;SDS011;41577;47.470;19.080;2023-08-20T00:39:10;12.48;;;6.72;;
53867;SDS011;41577;47.470;19.080;2023-08-20T00:39:22;15.95;;;6.80;;
53867;SDS011;41577;47.470;19.080;2023-08-20T00:39:34;13.07;;;6.40;;
53867;SDS011;41577;47.470;19.080;2023-08-20T00:39:46;13.23;;;6.32;;
53867;SDS011;41577;47.470;19.080;2023-08-20T00:39:58;9.13;;;6.38;;
53867;SDS011;41577;47.470;19.080;2023-08-20T00:40:10;8.95;;;6.10;;
53867;SDS011;41577;47.470;19.080;2023-08-20T00:40:22;7.47;;;6.03;;
53867;SDS011;41577;47.470;19.080;2023-08-20T00:40:34;7.18;;;5.80;;
53867;SDS011;41577;47.470;19.080;2023-08-20T00:40:46;6.68;;;5.88;;
53867;SDS011;41577;47.470;19.080;2023-08-20T00:40:58;7.15;;;6.05;;
53867;SDS011;41577;47.470;19.080;2023-08-20T00:41:10;7.53;;;6.20;;
53867;SDS011;41577;47.470;19.080;2023-08-20T00:41:22;9.98;;;5.95;;
53867;SDS011;41577;47.470;19.080;2023-08-20T00:41:34;10.45;;;6.20;;
53867;SDS011;41577;47.470;19.080;2023-08-20T00:41:46;10.23;;;6.47;;
53867;SDS011;41577;47.470;19.080;2023-08-20T00:41:58;6.70;;;6.05;;
53867;SDS011;41577;47.470;19.080;2023-08-20T00:42:09;6.70;;;5.97;;
53867;SDS011;41577;47.470;19.080;2023-08-20T00:42:23;7.68;;;5.82;;
53867;SDS011;41577;47.470;19.080;2023-08-20T00:42:35;7.88;;;5.75;;
53867;SDS011;41577;47.470;19.080;2023-08-20T00:42:47;6.50;;;5.65;;
53867;SDS011;41577;47.470;19.080;2023-08-20T00:42:59;8.07;;;6.07;;
53867;SDS011;41577;47.470;19.080;2023-08-20T00:43:11;11.68;;;5.82;;
53867;SDS011;41577;47.470;19.080;2023-08-20T00:43:23;12.68;;;5.85;;
53867;SDS011;41577;47.470;19.080;2023-08-20T00:43:35;8.15;;;5.85;;
53867;SDS011;41577;47.470;19.080;2023-08-20T00:43:47;7.90;;;5.95;;
53867;SDS011;41577;47.470;19.080;2023-08-20T00:44:06;8.60;;;6.13;;
53867;SDS011;41577;47.470;19.080;2023-08-20T00:44:18;9.43;;;6.57;;
53867;SDS011;41577;47.470;19.080;2023-08-20T00:44:30;9.02;;;6.63;;
53867;SDS011;41577;47.470;19.080;2023-08-20T00:44:42;10.68;;;6.75;;
53867;SDS011;41577;47.470;19.080;2023-08-20T00:44:54;11.23;;;6.60;;
53867;SDS011;41577;47.470;19.080;2023-08-20T00:45:06;14.48;;;6.30;;
53867;SDS011;41577;47.470;19.080;2023-08-20T00:45:19;12.93;;;6.05;;
53867;SDS011;41577;47.470;19.080;2023-08-20T00:45:30;12.68;;;6.32;;
53867;SDS011;41577;47.470;19.080;2023-08-20T00:45:42;9.02;;;6.28;;
53867;SDS011;41577;47.470;19.080;2023-08-20T00:45:55;9.18;;;5.80;;
53867;SDS011;41577;47.470;19.080;2023-08-20T00:46:07;8.45;;;5.32;;
53867;SDS011;41577;47.470;19.080;2023-08-20T00:46:19;10.05;;;6.00;;
53867;SDS011;41577;47.470;19.080;2023-08-20T00:46:31;9.93;;;6.40;;
53867;SDS011;41577;47.470;19.080;2023-08-20T00:46:43;8.70;;;5.78;;
53867;SDS011;41577;47.470;19.080;2023-08-20T00:46:55;10.00;;;5.95;;
53867;SDS011;41577;47.470;19.080;2023-08-20T00:47:08;9.88;;;6.18;;
53867;SDS011;41577;47.470;19.080;2023-08-20T00:47:20;8.00;;;6.28;;
53867;SDS011;41577;47.470;19.080;2023-08-20T00:47:33;7.65;;;6.40;;
53867;SDS011;41577;47.470;19.080;2023-08-20T00:47:46;7.45;;;6.32;;
53867;SDS011;41577;47.470;19.080;2023-08-20T00:47:59;8.60;;;6.35;;
53867;SDS011;41577;47.470;19.080;2023-08-20T00:48:11;9.15;;;6.30;;
53867;SDS011;41577;47.470;19.080;2023-08-20T00:48:24;7.85;;;6.03;;
53867;SDS011;41577;47.470;19.080;2023-08-20T00:48:36;7.05;;;5.63;;
53867;SDS011;41577;47.470;19.080;2023-08-20T00:48:49;6.32;;;5.68;;
53867;SDS011;41577;47.470;19.080;2023-08-20T00:49:01;9.55;;;6.00;;
53867;SDS011;41577;47.470;19.080;2023-08-20T00:49:13;9.60;;;5.90;;
53867;SDS011;41577;47.470;19.080;2023-08-20T00:49:25;9.52;;;5.72;;
53867;SDS011;41577;47.470;19.080;2023-08-20T00:49:37;7.90;;;6.03;;
53867;SDS011;41577;47.470;19.080;2023-08-20T00:49:50;8.60;;;6.30;;
53867;SDS011;41577;47.470;19.080;2023-08-20T00:50:02;11.60;;;6.35;;
53867;SDS011;41577;47.470;19.080;2023-08-20T00:50:15;14.63;;;6.18;;
53867;SDS011;41577;47.470;19.080;2023-08-20T00:50:27;14.38;;;6.35;;
53867;SDS011;41577;47.470;19.080;2023-08-20T00:50:40;8.55;;;6.20;;
53867;SDS011;41577;47.470;19.080;2023-08-20T00:50:52;9.20;;;6.55;;
53867;SDS011;41577;47.470;19.080;2023-08-20T00:51:04;9.70;;;6.20;;
53867;SDS011;41577;47.470;19.080;2023-08-20T00:51:16;10.48;;;6.32;;
53867;SDS011;41577;47.470;19.080;2023-08-20T00:51:32;11.35;;;6.15;;
53867;SDS011;41577;47.470;19.080;2023-08-20T00:51:44;9.35;;;6.03;;
53867;SDS011;41577;47.470;19.080;2023-08-20T00:51:57;8.27;;;6.03;;
53867;SDS011;41577;47.470;19.080;2023-08-20T00:52:10;8.40;;;6.07;;
53867;SDS011;41577;47.470;19.080;2023-08-20T00:52:24;7.25;;;5.97;;
53867;SDS011;41577;47.470;19.080;2023-08-20T00:52:36;6.97;;;5.60;;
53867;SDS011;41577;47.470;19.080;2023-08-20T00:52:49;8.00;;;5.68;;
53867;SDS011;41577;47.470;19.080;2023-08-20T00:53:01;8.20;;;5.82;;
53867;SDS011;41577;47.470;19.080;2023-08-20T00:53:13;7.80;;;6.03;;
53867;SDS011;41577;47.470;19.080;2023-08-20T00:53:26;8.73;;;6.03;;
53867;SDS011;41577;47.470;19.080;2023-08-20T00:53:39;13.23;;;6.07;;
53867;SDS011;41577;47.470;19.080;2023-08-20T00:53:51;13.32;;;6.20;;
53867;SDS011;41577;47.470;19.080;2023-08-20T00:54:03;9.18;;;6.10;;
53867;SDS011;41577;47.470;19.080;2023-08-20T00:54:16;8.70;;;5.95;;
53867;SDS011;41577;47.470;19.080;2023-08-20T00:54:28;10.00;;;6.03;;
53867;SDS011;41577;47.470;19.080;2023-08-20T00:54:40;11.25;;;6.20;;
53867;SDS011;41577;47.470;19.080;2023-08-20T00:54:53;11.90;;;6.50;;
53867;SDS011;41577;47.470;19.080;2023-08-20T00:55:07;9.63;;;6.30;;
53867;SDS011;41577;47.470;19.080;2023-08-20T00:55:20;9.07;;;6.35;;
53867;SDS011;41577;47.470;19.080;2023-08-20T00:55:32;8.95;;;6.32;;
53867;SDS011;41577;47.470;19.080;2023-08-20T00:55:43;9.27;;;6.07;;
53867;SDS011;41577;47.470;19.080;2023-08-20T00:55:56;10.48;;;5.97;;
53867;SDS011;41577;47.470;19.080;2023-08-20T00:56:07;8.40;;;5.88;;
53867;SDS011;41577;47.470;19.080;2023-08-20T00:56:19;8.20;;;6.03;;
53867;SDS011;41577;47.470;19.080;2023-08-20T00:56:31;11.90;;;6.43;;
53867;SDS011;41577;47.470;19.080;2023-08-20T00:56:43;11.98;;;6.05;;
53867;SDS011;41577;47.470;19.080;2023-08-20T00:56:56;8.30;;;5.88;;
53867;SDS011;41577;47.470;19.080;2023-08-20T00:57:09;11.13;;;5.85;;
53867;SDS011;41577;47.470;19.080;2023-08-20T00:57:21;10.05;;;5.75;;
53867;SDS011;41577;47.470;19.080;2023-08-20T00:57:34;9.05;;;5.93;;
53867;SDS011;41577;47.470;19.080;2023-08-20T00:57:47;6.95;;;5.95;;
53867;SDS011;41577;47.470;19.080;2023-08-20T00:57:59;7.82;;;5.90;;
53867;SDS011;41577;47.470;19.080;2023-08-20T00:58:11;7.70;;;5.82;;
53867;SDS011;41577;47.470;19.080;2023-08-20T00:58:23;8.82;;;5.95;;
53867;SDS011;41577;47.470;19.080;2023-08-20T00:58:35;11.43;;;6.05;;
53867;SDS011;41577;47.470;19.080;2023-08-20T00:58:47;9.43;;;5.80;;
53867;SDS011;41577;47.470;19.080;2023-08-20T00:59:00;7.53;;;5.75;;
53867;SDS011;41577;47.470;19.080;2023-08-20T00:59:12;9.90;;;6.25;;
53867;SDS011;41577;47.470;19.080;2023-08-20T00:59:23;10.02;;;6.57;;
53867;SDS011;41577;47.470;19.080;2023-08-20T00:59:36;9.70;;;6.50;;
53867;SDS011;41577;47.470;19.080;2023-08-20T00:59:49;9.02;;;6.25;;
53867;SDS011;41577;47.470;19.080;2023-08-20T01:00:02;10.75;;;6.40;;
53867;SDS011;41577;47.470;19.080;2023-08-20T01:00:14;12.00;;;6.15;;
53867;SDS011;41577;47.470;19.080;2023-08-20T01:00:28;10.85;;;5.60;;
53867;SDS011;41577;47.470;19.080;2023-08-20T01:00:40;7.75;;;5.63;;
53867;SDS011;41577;47.470;19.080;2023-08-20T01:00:52;9.20;;;5.90;;
53867;SDS011;41577;47.470;19.080;2023-08-20T01:01:04;9.75;;;6.03;;
53867;SDS011;41577;47.470;19.080;2023-08-20T01:01:16;8.88;;;6.05;;
53867;SDS011;41577;47.470;19.080;2023-08-20T01:01:28;8.48;;;5.85;;
53867;SDS011;41577;47.470;19.080;2023-08-20T01:01:40;9.80;;;5.85;;
53867;SDS011;41577;47.470;19.080;2023-08-20T01:01:52;7.78;;;5.82;;
53867;SDS011;41577;47.470;19.080;2023-08-20T01:02:04;8.75;;;6.15;;
53867;SDS011;41577;47.470;19.080;2023-08-20T01:02:18;7.85;;;6.38;;
53867;SDS011;41577;47.470;19.080;2023-08-20T01:02:31;7.97;;;6.32;;
53867;SDS011;41577;47.470;19.080;2023-08-20T01:02:43;7.55;;;5.97;;
53867;SDS011;41577;47.470;19.080;2023-08-20T01:02:59;8.77;;;5.90;;
53867;SDS011;41577;47.470;19.080;2023-08-20T01:03:11;9.77;;;6.40;;
53867;SDS011;41577;47.470;19.080;2023-08-20T01:03:23;8.52;;;6.05;;
53867;SDS011;41577;47.470;19.080;2023-08-20T01:03:34;7.95;;;6.15;;
53867;SDS011;41577;47.470;19.080;2023-08-20T01:03:47;6.53;;;5.93;;
53867;SDS011;41577;47.470;19.080;2023-08-20T01:03:58;6.38;;;5.85;;
53867;SDS011;41577;47.470;19.080;2023-08-20T01:04:10;6.68;;;5.90;;
53867;SDS011;41577;47.470;19.080;2023-08-20T01:04:22;6.43;;;5.75;;
53867;SDS011;41577;47.470;19.080;2023-08-20T01:04:34;8.10;;;5.85;;
53867;SDS011;41577;47.470;19.080;2023-08-20T01:04:47;9.30;;;5.75;;
53867;SDS011;41577;47.470;19.080;2023-08-20T01:05:00;10.50;;;6.00;;
53867;SDS011;41577;47.470;19.080;2023-08-20T01:05:14;8.75;;;6.18;;
53867;SDS011;41577;47.470;19.080;2023-08-20T01:05:27;7.03;;;5.97;;
53867;SDS011;41577;47.470;19.080;2023-08-20T01:05:46;8.57;;;6.25;;
53867;SDS011;41577;47.470;19.080;2023-08-20T01:06:06;11.10;;;6.28;;
53867;SDS011;41577;47.470;19.080;2023-08-20T01:06:26;13.88;;;6.25;;
53867;SDS011;41577;47.470;19.080;2023-08-20T01:06:53;11.13;;;6.53;;
53867;SDS011;41577;47.470;19.080;2023-08-20T01:07:14;8.45;;;6.00;;
53867;SDS011;41577;47.470;19.080;2023-08-20T01:07:35;9.90;;;6.10;;
53867;SDS011;41577;47.470;19.080;2023-08-20T01:07:57;7.22;;;5.90;;
53867;SDS011;41577;47.470;19.080;2023-08-20T01:08:19;15.68;;;5.85;;
53867;SDS011;41577;47.470;19.080;2023-08-20T01:08:38;8.20;;;5.97;;
53867;SDS011;41577;47.470;19.080;2023-08-20T01:08:53;9.27;;;6.03;;
53867;SDS011;41577;47.470;19.080;2023-08-20T01:09:14;7.50;;;6.07;;
53867;SDS011;41577;47.470;19.080;2023-08-20T01:09:37;9.75;;;6.07;;
53867;SDS011;41577;47.470;19.080;2023-08-20T01:10:02;8.32;;;6.00;;
53867;SDS011;41577;47.470;19.080;2023-08-20T01:10:21;8.20;;;5.95;;
53867;SDS011;41577;47.470;19.080;2023-08-20T01:10:40;6.78;;;5.53;;
53867;SDS011;41577;47.470;19.080;2023-08-20T01:11:03;8.73;;;6.20;;
53867;SDS011;41577;47.470;19.080;2023-08-20T01:11:24;7.88;;;5.75;;
53867;SDS011;41577;47.470;19.080;2023-08-20T01:11:42;7.18;;;5.63;;
53867;SDS011;41577;47.470;19.080;2023-08-20T01:12:02;7.60;;;6.30;;
53867;SDS011;41577;47.470;19.080;2023-08-20T01:12:14;6.85;;;6.07;;
53867;SDS011;41577;47.470;19.080;2023-08-20T01:12:29;7.60;;;5.88;;
53867;SDS011;41577;47.470;19.080;2023-08-20T01:12:42;10.35;;;6.25;;
53867;SDS011;41577;47.470;19.080;2023-08-20T01:12:55;8.93;;;6.15;;
53867;SDS011;41577;47.470;19.080;2023-08-20T01:13:07;7.00;;;5.95;;
53867;SDS011;41577;47.470;19.080;2023-08-20T01:13:20;6.85;;;5.72;;
53867;SDS011;41577;47.470;19.080;2023-08-20T01:13:33;6.57;;;5.75;;
53867;SDS011;41577;47.470;19.080;2023-08-20T01:13:45;6.47;;;5.85;;
53867;SDS011;41577;47.470;19.080;2023-08-20T01:13:57;7.00;;;6.38;;
53867;SDS011;41577;47.470;19.080;2023-08-20T01:14:14;7.28;;;6.57;;
53867;SDS011;41577;47.470;19.080;2023-08-20T01:14:26;8.98;;;6.38;;
53867;SDS011;41577;47.470;19.080;2023-08-20T01:14:38;13.18;;;6.05;;
53867;SDS011;41577;47.470;19.080;2023-08-20T01:14:50;11.73;;;6.10;;
53867;SDS011;41577;47.470;19.080;2023-08-20T01:15:02;6.50;;;5.82;;
53867;SDS011;41577;47.470;19.080;2023-08-20T01:15:14;6.63;;;5.93;;
53867;SDS011;41577;47.470;19.080;2023-08-20T01:15:27;6.70;;;5.95;;
53867;SDS011;41577;47.470;19.080;2023-08-20T01:15:39;6.68;;;5.60;;
53867;SDS011;41577;47.470;19.080;2023-08-20T01:15:51;7.25;;;5.40;;
53867;SDS011;41577;47.470;19.080;2023-08-20T01:16:03;6.45;;;5.75;;
53867;SDS011;41577;47.470;19.080;2023-08-20T01:16:16;6.80;;;6.07;;
53867;SDS011;41577;47.470;19.080;2023-08-20T01:16:27;10.13;;;6.53;;
53867;SDS011;41577;47.470;19.080;2023-08-20T01:16:39;12.63;;;6.43;;
53867;SDS011;41577;47.470;19.080;2023-08-20T01:16:51;12.18;;;6.18;;